This is the latest recevied weather packets stored in our database for station/object K1BES. If no packets are shown the sender has not sent any weather packets the latest 10 day(s).
| Time | Temp. | Humidity | Pressure | Rain* | Wind** | Luminosity | Snow |
|---|---|---|---|---|---|---|---|
| 1788037586 | 23.33° C | 94% | 1019.4 hPa | 1.78 mm | - | 11 W/m² | - |
| 1788037281 | 23.33° C | 94% | 1019.3 hPa | 3.05 mm | - | 10 W/m² | - |
| 1788036980 | 23.33° C | 94% | 1019.4 hPa | 4.32 mm | - | 11 W/m² | - |
| 1788036677 | 23.33° C | 94% | 1019.7 hPa | 16.76 mm | - | 10 W/m² | - |
| 1788036372 | 23.89° C | 93% | 1020 hPa | 37.85 mm | - | 7 W/m² | - |
| 1788036067 | 23.89° C | 92% | 1020.7 hPa | 41.4 mm | - | 7 W/m² | - |
| 1788035766 | 24.44° C | 91% | 1020.6 hPa | 29.97 mm | - | 9 W/m² | - |
| 1788035462 | 25° C | 90% | 1021 hPa | 7.87 mm | - | 6 W/m² | - |
| 1788035156 | 26.67° C | 84% | 1020.5 hPa | 1.78 mm | - | 4 W/m² | - |
| 1788034853 | 27.78° C | 77% | 1020.5 hPa | 0 mm | - | 2 W/m² | - |
| 1788034549 | 28.89° C | 70% | 1020.4 hPa | 0 mm | - | 2 W/m² | - |
| 1788034245 | 30° C | 67% | 1019.5 hPa | 0 mm | - | 3 W/m² | - |
| 1788033944 | 31.11° C | 67% | 1019.7 hPa | 0 mm | - | 10 W/m² | - |
| 1788033640 | 32.22° C | 69% | 1019.1 hPa | 0 mm | - | 31 W/m² | - |
| 1788033338 | 32.78° C | 67% | 1018.7 hPa | 0 mm | - | 116 W/m² | - |
| 1788033034 | 33.33° C | 65% | 1018.7 hPa | 0 mm | - | 176 W/m² | - |
| 1788032734 | 33.89° C | 65% | 1018.7 hPa | 0 mm | - | 274 W/m² | - |
| 1788032429 | 34.44° C | 63% | 1018.2 hPa | 0 mm | - | 509 W/m² | - |
| 1788032125 | 34.44° C | 62% | 1018.4 hPa | 0 mm | - | 630 W/m² | - |
| 1788031821 | 34.44° C | 63% | 1018.5 hPa | 0 mm | - | 661 W/m² | - |
| 1788031521 | 35° C | 61% | 1018.4 hPa | 0 mm | - | 526 W/m² | - |
| 1788031215 | 35.56° C | 61% | 1018.6 hPa | 0 mm | - | 844 W/m² | - |
| 1788030914 | 35.56° C | 59% | 1018.5 hPa | 0 mm | - | 1020 W/m² | - |
| 1788030614 | 35° C | 60% | 1018.1 hPa | 0 mm | - | 977 W/m² | - |
| 1788030314 | 35° C | 62% | 1018 hPa | 0 mm | - | 955 W/m² | - |
* Rain latest hour (hover to see other rain measurements)
** Current wind speed in m/s (hover to see current wind gust speed)